sensor_id;sensor_type;location;lat;lon;timestamp;P1;durP1;ratioP1;P2;durP2;ratioP2
19291;SDS011;9779;51.756;7.450;2023-08-12T00:00:18;7.40;;;6.78;;
19291;SDS011;9779;51.756;7.450;2023-08-12T00:02:44;6.82;;;6.07;;
19291;SDS011;9779;51.756;7.450;2023-08-12T00:05:10;8.48;;;6.30;;
19291;SDS011;9779;51.756;7.450;2023-08-12T00:07:37;10.52;;;5.90;;
19291;SDS011;9779;51.756;7.450;2023-08-12T00:10:06;11.32;;;6.00;;
19291;SDS011;9779;51.756;7.450;2023-08-12T00:12:32;5.80;;;5.30;;
19291;SDS011;9779;51.756;7.450;2023-08-12T00:14:58;6.03;;;5.43;;
19291;SDS011;9779;51.756;7.450;2023-08-12T00:17:24;5.82;;;5.22;;
19291;SDS011;9779;51.756;7.450;2023-08-12T00:19:50;5.70;;;5.30;;
19291;SDS011;9779;51.756;7.450;2023-08-12T00:22:16;6.88;;;4.75;;
19291;SDS011;9779;51.756;7.450;2023-08-12T00:24:41;8.88;;;5.32;;
19291;SDS011;9779;51.756;7.450;2023-08-12T00:27:07;6.07;;;5.55;;
19291;SDS011;9779;51.756;7.450;2023-08-12T00:29:34;7.97;;;5.20;;
19291;SDS011;9779;51.756;7.450;2023-08-12T00:32:00;5.93;;;5.10;;
19291;SDS011;9779;51.756;7.450;2023-08-12T00:34:26;5.32;;;4.82;;
19291;SDS011;9779;51.756;7.450;2023-08-12T00:36:51;5.28;;;4.85;;
19291;SDS011;9779;51.756;7.450;2023-08-12T00:39:17;5.80;;;5.22;;
19291;SDS011;9779;51.756;7.450;2023-08-12T00:41:43;5.18;;;4.68;;
19291;SDS011;9779;51.756;7.450;2023-08-12T00:44:08;5.80;;;5.30;;
19291;SDS011;9779;51.756;7.450;2023-08-12T00:46:34;5.20;;;4.72;;
19291;SDS011;9779;51.756;7.450;2023-08-12T00:49:01;7.15;;;4.68;;
19291;SDS011;9779;51.756;7.450;2023-08-12T00:51:27;4.80;;;4.40;;
19291;SDS011;9779;51.756;7.450;2023-08-12T00:53:53;6.13;;;4.75;;
19291;SDS011;9779;51.756;7.450;2023-08-12T00:56:21;5.75;;;5.35;;
19291;SDS011;9779;51.756;7.450;2023-08-12T00:58:46;5.85;;;5.28;;
19291;SDS011;9779;51.756;7.450;2023-08-12T01:01:12;7.03;;;5.20;;
19291;SDS011;9779;51.756;7.450;2023-08-12T01:03:42;4.97;;;4.68;;
19291;SDS011;9779;51.756;7.450;2023-08-12T01:06:08;6.03;;;4.85;;
19291;SDS011;9779;51.756;7.450;2023-08-12T01:08:34;6.10;;;5.50;;
19291;SDS011;9779;51.756;7.450;2023-08-12T01:13:46;7.93;;;4.53;;
19291;SDS011;9779;51.756;7.450;2023-08-12T01:16:21;6.35;;;4.13;;
19291;SDS011;9779;51.756;7.450;2023-08-12T01:18:48;4.95;;;4.45;;
19291;SDS011;9779;51.756;7.450;2023-08-12T01:21:15;6.25;;;4.35;;
19291;SDS011;9779;51.756;7.450;2023-08-12T01:23:42;4.30;;;4.10;;
19291;SDS011;9779;51.756;7.450;2023-08-12T01:26:08;4.85;;;4.55;;
19291;SDS011;9779;51.756;7.450;2023-08-12T01:28:34;6.17;;;4.50;;
19291;SDS011;9779;51.756;7.450;2023-08-12T01:31:08;4.80;;;4.40;;
19291;SDS011;9779;51.756;7.450;2023-08-12T01:33:44;4.57;;;4.27;;
19291;SDS011;9779;51.756;7.450;2023-08-12T01:36:16;4.93;;;4.07;;
19291;SDS011;9779;51.756;7.450;2023-08-12T01:38:44;4.82;;;4.43;;
19291;SDS011;9779;51.756;7.450;2023-08-12T01:41:12;4.82;;;4.53;;
19291;SDS011;9779;51.756;7.450;2023-08-12T01:43:41;5.32;;;4.93;;
19291;SDS011;9779;51.756;7.450;2023-08-12T01:46:07;4.83;;;4.53;;
19291;SDS011;9779;51.756;7.450;2023-08-12T01:48:34;4.53;;;4.20;;
19291;SDS011;9779;51.756;7.450;2023-08-12T01:51:00;4.50;;;4.20;;
19291;SDS011;9779;51.756;7.450;2023-08-12T01:53:25;4.97;;;4.43;;
19291;SDS011;9779;51.756;7.450;2023-08-12T01:55:51;5.53;;;5.00;;
19291;SDS011;9779;51.756;7.450;2023-08-12T01:58:17;5.70;;;5.20;;
19291;SDS011;9779;51.756;7.450;2023-08-12T02:00:43;5.50;;;4.87;;
19291;SDS011;9779;51.756;7.450;2023-08-12T02:03:09;5.43;;;5.03;;
19291;SDS011;9779;51.756;7.450;2023-08-12T02:05:34;5.97;;;5.40;;
19291;SDS011;9779;51.756;7.450;2023-08-12T02:08:02;5.83;;;5.40;;
19291;SDS011;9779;51.756;7.450;2023-08-12T02:10:28;5.65;;;5.18;;
19291;SDS011;9779;51.756;7.450;2023-08-12T02:12:54;5.53;;;5.03;;
19291;SDS011;9779;51.756;7.450;2023-08-12T02:15:20;5.65;;;5.15;;
19291;SDS011;9779;51.756;7.450;2023-08-12T02:17:45;5.45;;;5.05;;
19291;SDS011;9779;51.756;7.450;2023-08-12T02:20:11;5.72;;;5.28;;
19291;SDS011;9779;51.756;7.450;2023-08-12T02:22:36;5.70;;;5.07;;
19291;SDS011;9779;51.756;7.450;2023-08-12T02:25:02;6.03;;;5.63;;
19291;SDS011;9779;51.756;7.450;2023-08-12T02:27:28;6.38;;;5.78;;
19291;SDS011;9779;51.756;7.450;2023-08-12T02:29:54;8.18;;;5.55;;
19291;SDS011;9779;51.756;7.450;2023-08-12T02:32:19;6.05;;;5.55;;
19291;SDS011;9779;51.756;7.450;2023-08-12T02:34:45;6.10;;;5.60;;
19291;SDS011;9779;51.756;7.450;2023-08-12T02:37:10;5.78;;;5.30;;
19291;SDS011;9779;51.756;7.450;2023-08-12T02:39:37;7.22;;;4.93;;
19291;SDS011;9779;51.756;7.450;2023-08-12T02:42:03;5.68;;;5.28;;
19291;SDS011;9779;51.756;7.450;2023-08-12T02:44:29;5.38;;;5.03;;
19291;SDS011;9779;51.756;7.450;2023-08-12T02:46:55;4.75;;;4.35;;
19291;SDS011;9779;51.756;7.450;2023-08-12T02:49:21;4.93;;;4.63;;
19291;SDS011;9779;51.756;7.450;2023-08-12T02:51:46;5.25;;;4.88;;
19291;SDS011;9779;51.756;7.450;2023-08-12T02:54:12;4.97;;;4.68;;
19291;SDS011;9779;51.756;7.450;2023-08-12T02:56:37;5.20;;;4.80;;
19291;SDS011;9779;51.756;7.450;2023-08-12T02:59:03;6.00;;;5.00;;
19291;SDS011;9779;51.756;7.450;2023-08-12T03:01:29;5.88;;;5.05;;
19291;SDS011;9779;51.756;7.450;2023-08-12T03:03:55;6.40;;;5.13;;
19291;SDS011;9779;51.756;7.450;2023-08-12T03:06:21;5.78;;;4.68;;
19291;SDS011;9779;51.756;7.450;2023-08-12T03:08:46;8.13;;;5.20;;
19291;SDS011;9779;51.756;7.450;2023-08-12T03:11:12;4.93;;;4.63;;
19291;SDS011;9779;51.756;7.450;2023-08-12T03:13:40;6.10;;;5.63;;
19291;SDS011;9779;51.756;7.450;2023-08-12T03:16:10;6.17;;;5.77;;
19291;SDS011;9779;51.756;7.450;2023-08-12T03:18:39;7.63;;;6.13;;
19291;SDS011;9779;51.756;7.450;2023-08-12T03:21:06;6.32;;;5.80;;
19291;SDS011;9779;51.756;7.450;2023-08-12T03:23:37;6.87;;;6.37;;
19291;SDS011;9779;51.756;7.450;2023-08-12T03:26:03;11.65;;;7.53;;
19291;SDS011;9779;51.756;7.450;2023-08-12T03:28:29;7.38;;;6.88;;
19291;SDS011;9779;51.756;7.450;2023-08-12T03:30:55;8.67;;;8.07;;
19291;SDS011;9779;51.756;7.450;2023-08-12T03:33:21;7.97;;;7.17;;
19291;SDS011;9779;51.756;7.450;2023-08-12T03:35:49;12.00;;;8.60;;
19291;SDS011;9779;51.756;7.450;2023-08-12T03:38:15;10.10;;;7.93;;
19291;SDS011;9779;51.756;7.450;2023-08-12T03:40:41;10.13;;;7.43;;
19291;SDS011;9779;51.756;7.450;2023-08-12T03:43:07;8.00;;;7.30;;
19291;SDS011;9779;51.756;7.450;2023-08-12T03:45:33;8.77;;;8.17;;
19291;SDS011;9779;51.756;7.450;2023-08-12T03:48:05;9.00;;;8.35;;
19291;SDS011;9779;51.756;7.450;2023-08-12T03:50:34;8.90;;;8.18;;
19291;SDS011;9779;51.756;7.450;2023-08-12T03:53:00;8.75;;;8.15;;
19291;SDS011;9779;51.756;7.450;2023-08-12T03:55:26;9.95;;;9.25;;
19291;SDS011;9779;51.756;7.450;2023-08-12T03:57:54;9.43;;;8.83;;
19291;SDS011;9779;51.756;7.450;2023-08-12T04:00:20;10.35;;;9.65;;
19291;SDS011;9779;51.756;7.450;2023-08-12T04:02:46;13.27;;;10.47;;
19291;SDS011;9779;51.756;7.450;2023-08-12T04:05:14;11.23;;;10.37;;
19291;SDS011;9779;51.756;7.450;2023-08-12T04:07:39;11.60;;;10.07;;
19291;SDS011;9779;51.756;7.450;2023-08-12T04:10:05;10.90;;;10.18;;
19291;SDS011;9779;51.756;7.450;2023-08-12T04:12:31;13.53;;;10.33;;
19291;SDS011;9779;51.756;7.450;2023-08-12T04:14:57;11.68;;;10.48;;
19291;SDS011;9779;51.756;7.450;2023-08-12T04:17:22;12.45;;;10.32;;
19291;SDS011;9779;51.756;7.450;2023-08-12T04:19:48;12.47;;;10.23;;
19291;SDS011;9779;51.756;7.450;2023-08-12T04:22:14;11.23;;;10.23;;
19291;SDS011;9779;51.756;7.450;2023-08-12T04:24:40;15.02;;;12.23;;
19291;SDS011;9779;51.756;7.450;2023-08-12T04:27:05;12.30;;;11.40;;
19291;SDS011;9779;51.756;7.450;2023-08-12T04:29:31;12.27;;;11.00;;
19291;SDS011;9779;51.756;7.450;2023-08-12T04:31:57;11.93;;;10.90;;
19291;SDS011;9779;51.756;7.450;2023-08-12T04:34:22;11.50;;;10.50;;
19291;SDS011;9779;51.756;7.450;2023-08-12T04:36:48;12.40;;;11.30;;
19291;SDS011;9779;51.756;7.450;2023-08-12T04:39:13;12.38;;;11.40;;
19291;SDS011;9779;51.756;7.450;2023-08-12T04:41:39;12.18;;;11.25;;
19291;SDS011;9779;51.756;7.450;2023-08-12T04:44:05;13.50;;;11.98;;
19291;SDS011;9779;51.756;7.450;2023-08-12T04:46:30;12.07;;;10.93;;
19291;SDS011;9779;51.756;7.450;2023-08-12T04:48:57;11.97;;;10.93;;
19291;SDS011;9779;51.756;7.450;2023-08-12T04:51:22;12.77;;;11.87;;
19291;SDS011;9779;51.756;7.450;2023-08-12T04:53:48;12.33;;;11.27;;
19291;SDS011;9779;51.756;7.450;2023-08-12T04:56:13;11.95;;;11.05;;
19291;SDS011;9779;51.756;7.450;2023-08-12T04:58:39;12.47;;;11.47;;
19291;SDS011;9779;51.756;7.450;2023-08-12T05:01:04;11.63;;;10.85;;
19291;SDS011;9779;51.756;7.450;2023-08-12T05:03:30;12.70;;;11.60;;
19291;SDS011;9779;51.756;7.450;2023-08-12T05:05:56;12.30;;;11.10;;
19291;SDS011;9779;51.756;7.450;2023-08-12T05:08:21;11.80;;;10.67;;
19291;SDS011;9779;51.756;7.450;2023-08-12T05:10:47;13.93;;;11.80;;
19291;SDS011;9779;51.756;7.450;2023-08-12T05:13:14;11.50;;;10.67;;
19291;SDS011;9779;51.756;7.450;2023-08-12T05:15:40;11.80;;;10.80;;
19291;SDS011;9779;51.756;7.450;2023-08-12T05:18:06;12.13;;;11.02;;
19291;SDS011;9779;51.756;7.450;2023-08-12T05:20:31;12.13;;;11.10;;
19291;SDS011;9779;51.756;7.450;2023-08-12T05:22:57;10.90;;;10.10;;
19291;SDS011;9779;51.756;7.450;2023-08-12T05:25:23;12.20;;;11.05;;
19291;SDS011;9779;51.756;7.450;2023-08-12T05:27:49;11.87;;;10.97;;
19291;SDS011;9779;51.756;7.450;2023-08-12T05:30:15;10.80;;;10.10;;
19291;SDS011;9779;51.756;7.450;2023-08-12T05:32:40;10.68;;;9.70;;
19291;SDS011;9779;51.756;7.450;2023-08-12T05:35:06;10.97;;;10.13;;
19291;SDS011;9779;51.756;7.450;2023-08-12T05:37:32;11.10;;;10.20;;
19291;SDS011;9779;51.756;7.450;2023-08-12T05:39:58;11.07;;;10.03;;
19291;SDS011;9779;51.756;7.450;2023-08-12T05:42:23;9.50;;;8.80;;
19291;SDS011;9779;51.756;7.450;2023-08-12T05:44:49;10.00;;;9.30;;
19291;SDS011;9779;51.756;7.450;2023-08-12T05:47:14;10.00;;;9.25;;
19291;SDS011;9779;51.756;7.450;2023-08-12T05:49:43;11.30;;;10.03;;
19291;SDS011;9779;51.756;7.450;2023-08-12T05:52:08;10.67;;;9.87;;
19291;SDS011;9779;51.756;7.450;2023-08-12T05:54:34;10.97;;;10.17;;
19291;SDS011;9779;51.756;7.450;2023-08-12T05:57:00;10.87;;;9.83;;
19291;SDS011;9779;51.756;7.450;2023-08-12T05:59:25;11.00;;;10.07;;
19291;SDS011;9779;51.756;7.450;2023-08-12T06:01:51;12.00;;;10.85;;
19291;SDS011;9779;51.756;7.450;2023-08-12T06:04:16;10.52;;;9.73;;
19291;SDS011;9779;51.756;7.450;2023-08-12T06:06:42;9.73;;;9.03;;
19291;SDS011;9779;51.756;7.450;2023-08-12T06:09:08;17.10;;;8.80;;
19291;SDS011;9779;51.756;7.450;2023-08-12T06:11:33;9.27;;;8.67;;
19291;SDS011;9779;51.756;7.450;2023-08-12T06:13:59;9.97;;;9.13;;
19291;SDS011;9779;51.756;7.450;2023-08-12T06:16:24;11.00;;;8.90;;
19291;SDS011;9779;51.756;7.450;2023-08-12T06:18:50;10.00;;;9.30;;
19291;SDS011;9779;51.756;7.450;2023-08-12T06:21:16;9.70;;;9.03;;
19291;SDS011;9779;51.756;7.450;2023-08-12T06:23:41;9.87;;;9.03;;
19291;SDS011;9779;51.756;7.450;2023-08-12T06:26:07;9.02;;;8.20;;
19291;SDS011;9779;51.756;7.450;2023-08-12T06:28:32;9.33;;;8.60;;
19291;SDS011;9779;51.756;7.450;2023-08-12T06:30:58;8.38;;;7.68;;
19291;SDS011;9779;51.756;7.450;2023-08-12T06:33:24;12.07;;;7.87;;
19291;SDS011;9779;51.756;7.450;2023-08-12T06:35:50;9.10;;;8.23;;
19291;SDS011;9779;51.756;7.450;2023-08-12T06:38:16;8.50;;;7.80;;
19291;SDS011;9779;51.756;7.450;2023-08-12T06:40:42;7.85;;;7.43;;
19291;SDS011;9779;51.756;7.450;2023-08-12T06:43:10;8.50;;;7.70;;
19291;SDS011;9779;51.756;7.450;2023-08-12T06:45:35;6.85;;;6.40;;
19291;SDS011;9779;51.756;7.450;2023-08-12T06:48:01;7.73;;;7.13;;
19291;SDS011;9779;51.756;7.450;2023-08-12T06:50:29;8.82;;;8.13;;
19291;SDS011;9779;51.756;7.450;2023-08-12T06:52:56;8.43;;;7.85;;
19291;SDS011;9779;51.756;7.450;2023-08-12T06:55:22;9.60;;;7.68;;
19291;SDS011;9779;51.756;7.450;2023-08-12T06:57:48;7.90;;;7.32;;
19291;SDS011;9779;51.756;7.450;2023-08-12T07:00:13;7.57;;;7.07;;
19291;SDS011;9779;51.756;7.450;2023-08-12T07:02:39;7.50;;;6.90;;
19291;SDS011;9779;51.756;7.450;2023-08-12T07:05:07;8.60;;;7.38;;
19291;SDS011;9779;51.756;7.450;2023-08-12T07:07:33;7.63;;;7.13;;
19291;SDS011;9779;51.756;7.450;2023-08-12T07:09:58;7.23;;;6.70;;
19291;SDS011;9779;51.756;7.450;2023-08-12T07:12:24;7.55;;;6.53;;
19291;SDS011;9779;51.756;7.450;2023-08-12T07:14:50;6.88;;;6.28;;
19291;SDS011;9779;51.756;7.450;2023-08-12T07:17:15;9.73;;;7.57;;
19291;SDS011;9779;51.756;7.450;2023-08-12T07:19:41;8.75;;;7.95;;
19291;SDS011;9779;51.756;7.450;2023-08-12T07:22:06;7.22;;;6.68;;
19291;SDS011;9779;51.756;7.450;2023-08-12T07:24:34;6.85;;;6.35;;
19291;SDS011;9779;51.756;7.450;2023-08-12T07:27:00;7.88;;;7.10;;
19291;SDS011;9779;51.756;7.450;2023-08-12T07:29:26;6.97;;;6.32;;
19291;SDS011;9779;51.756;7.450;2023-08-12T07:31:52;6.53;;;6.13;;
19291;SDS011;9779;51.756;7.450;2023-08-12T07:34:18;6.83;;;6.23;;
19291;SDS011;9779;51.756;7.450;2023-08-12T07:36:44;7.60;;;7.00;;
19291;SDS011;9779;51.756;7.450;2023-08-12T07:39:10;6.53;;;6.13;;
19291;SDS011;9779;51.756;7.450;2023-08-12T07:41:36;7.13;;;6.47;;
19291;SDS011;9779;51.756;7.450;2023-08-12T07:44:02;9.20;;;6.90;;
19291;SDS011;9779;51.756;7.450;2023-08-12T07:46:28;6.77;;;6.17;;
19291;SDS011;9779;51.756;7.450;2023-08-12T07:48:55;7.67;;;6.87;;
19291;SDS011;9779;51.756;7.450;2023-08-12T07:51:21;6.65;;;6.15;;
19291;SDS011;9779;51.756;7.450;2023-08-12T07:53:47;15.40;;;6.90;;
19291;SDS011;9779;51.756;7.450;2023-08-12T07:56:12;8.23;;;6.68;;
19291;SDS011;9779;51.756;7.450;2023-08-12T07:58:38;9.13;;;7.00;;
19291;SDS011;9779;51.756;7.450;2023-08-12T08:01:03;7.18;;;6.53;;
19291;SDS011;9779;51.756;7.450;2023-08-12T08:03:30;6.65;;;6.05;;
19291;SDS011;9779;51.756;7.450;2023-08-12T08:05:56;5.45;;;4.88;;
19291;SDS011;9779;51.756;7.450;2023-08-12T08:08:21;5.00;;;4.60;;
19291;SDS011;9779;51.756;7.450;2023-08-12T08:10:49;4.70;;;4.40;;
19291;SDS011;9779;51.756;7.450;2023-08-12T08:13:15;7.70;;;4.40;;
19291;SDS011;9779;51.756;7.450;2023-08-12T08:15:40;5.80;;;4.00;;
19291;SDS011;9779;51.756;7.450;2023-08-12T08:18:06;3.90;;;3.53;;
19291;SDS011;9779;51.756;7.450;2023-08-12T08:20:31;3.88;;;3.50;;
19291;SDS011;9779;51.756;7.450;2023-08-12T08:22:57;3.20;;;3.00;;
19291;SDS011;9779;51.756;7.450;2023-08-12T08:25:23;4.15;;;3.30;;
19291;SDS011;9779;51.756;7.450;2023-08-12T08:27:48;3.97;;;3.38;;
19291;SDS011;9779;51.756;7.450;2023-08-12T08:30:14;2.80;;;2.60;;
19291;SDS011;9779;51.756;7.450;2023-08-12T08:32:40;3.30;;;1.95;;
19291;SDS011;9779;51.756;7.450;2023-08-12T08:35:05;2.80;;;2.60;;
19291;SDS011;9779;51.756;7.450;2023-08-12T08:37:31;4.32;;;2.47;;
19291;SDS011;9779;51.756;7.450;2023-08-12T08:39:57;3.30;;;2.55;;
19291;SDS011;9779;51.756;7.450;2023-08-12T08:42:23;3.42;;;2.53;;
19291;SDS011;9779;51.756;7.450;2023-08-12T08:44:51;3.30;;;2.30;;
19291;SDS011;9779;51.756;7.450;2023-08-12T08:47:24;2.47;;;2.27;;
19291;SDS011;9779;51.756;7.450;2023-08-12T08:49:52;2.40;;;2.20;;
19291;SDS011;9779;51.756;7.450;2023-08-12T08:52:25;2.55;;;2.35;;
19291;SDS011;9779;51.756;7.450;2023-08-12T08:54:51;2.30;;;2.08;;
19291;SDS011;9779;51.756;7.450;2023-08-12T08:57:18;4.25;;;2.33;;
19291;SDS011;9779;51.756;7.450;2023-08-12T08:59:44;2.30;;;2.13;;
19291;SDS011;9779;51.756;7.450;2023-08-12T09:02:12;2.55;;;2.30;;
19291;SDS011;9779;51.756;7.450;2023-08-12T09:04:42;2.47;;;2.13;;
19291;SDS011;9779;51.756;7.450;2023-08-12T09:07:11;5.70;;;2.05;;
19291;SDS011;9779;51.756;7.450;2023-08-12T09:09:38;2.25;;;2.00;;
19291;SDS011;9779;51.756;7.450;2023-08-12T09:12:10;2.88;;;2.28;;
19291;SDS011;9779;51.756;7.450;2023-08-12T09:14:39;2.40;;;1.65;;
19291;SDS011;9779;51.756;7.450;2023-08-12T09:17:04;3.85;;;2.25;;
19291;SDS011;9779;51.756;7.450;2023-08-12T09:19:31;2.45;;;2.00;;
19291;SDS011;9779;51.756;7.450;2023-08-12T09:21:56;1.90;;;1.80;;
19291;SDS011;9779;51.756;7.450;2023-08-12T09:24:25;2.17;;;1.95;;
19291;SDS011;9779;51.756;7.450;2023-08-12T09:26:52;2.43;;;1.90;;
19291;SDS011;9779;51.756;7.450;2023-08-12T09:29:22;2.27;;;1.93;;
19291;SDS011;9779;51.756;7.450;2023-08-12T09:31:49;1.77;;;1.67;;
19291;SDS011;9779;51.756;7.450;2023-08-12T09:34:15;2.20;;;1.70;;
19291;SDS011;9779;51.756;7.450;2023-08-12T09:36:43;2.05;;;1.75;;
19291;SDS011;9779;51.756;7.450;2023-08-12T09:39:09;1.92;;;1.83;;
19291;SDS011;9779;51.756;7.450;2023-08-12T09:41:35;3.93;;;1.53;;
19291;SDS011;9779;51.756;7.450;2023-08-12T09:44:03;2.55;;;1.60;;
19291;SDS011;9779;51.756;7.450;2023-08-12T09:46:29;1.52;;;1.42;;
19291;SDS011;9779;51.756;7.450;2023-08-12T09:48:58;1.43;;;1.33;;
19291;SDS011;9779;51.756;7.450;2023-08-12T09:51:24;1.50;;;1.40;;
19291;SDS011;9779;51.756;7.450;2023-08-12T09:53:51;2.33;;;1.73;;
19291;SDS011;9779;51.756;7.450;2023-08-12T09:56:17;1.77;;;1.40;;
19291;SDS011;9779;51.756;7.450;2023-08-12T09:58:46;2.28;;;1.50;;
19291;SDS011;9779;51.756;7.450;2023-08-12T10:01:13;2.53;;;1.77;;
19291;SDS011;9779;51.756;7.450;2023-08-12T10:03:43;2.03;;;1.57;;
19291;SDS011;9779;51.756;7.450;2023-08-12T10:06:13;1.80;;;1.70;;
19291;SDS011;9779;51.756;7.450;2023-08-12T10:08:40;1.60;;;1.50;;
19291;SDS011;9779;51.756;7.450;2023-08-12T10:11:06;2.13;;;1.93;;
19291;SDS011;9779;51.756;7.450;2023-08-12T10:13:33;2.25;;;1.33;;
19291;SDS011;9779;51.756;7.450;2023-08-12T10:15:59;1.90;;;1.67;;
19291;SDS011;9779;51.756;7.450;2023-08-12T10:18:25;3.33;;;1.80;;
19291;SDS011;9779;51.756;7.450;2023-08-12T10:20:56;1.60;;;1.50;;
19291;SDS011;9779;51.756;7.450;2023-08-12T10:23:23;2.50;;;1.77;;
19291;SDS011;9779;51.756;7.450;2023-08-12T10:25:50;3.08;;;1.80;;
19291;SDS011;9779;51.756;7.450;2023-08-12T10:28:19;1.60;;;1.50;;
19291;SDS011;9779;51.756;7.450;2023-08-12T10:30:46;2.53;;;1.83;;
19291;SDS011;9779;51.756;7.450;2023-08-12T10:33:13;4.57;;;1.83;;
19291;SDS011;9779;51.756;7.450;2023-08-12T10:35:48;1.95;;;1.63;;
19291;SDS011;9779;51.756;7.450;2023-08-12T10:38:17;1.77;;;1.67;;
19291;SDS011;9779;51.756;7.450;2023-08-12T10:40:43;1.92;;;1.83;;
19291;SDS011;9779;51.756;7.450;2023-08-12T10:43:12;2.27;;;1.63;;
19291;SDS011;9779;51.756;7.450;2023-08-12T10:45:57;1.65;;;1.55;;
19291;SDS011;9779;51.756;7.450;2023-08-12T10:48:25;2.13;;;1.60;;
19291;SDS011;9779;51.756;7.450;2023-08-12T10:50:53;2.05;;;1.95;;
19291;SDS011;9779;51.756;7.450;2023-08-12T10:53:25;1.80;;;1.70;;
19291;SDS011;9779;51.756;7.450;2023-08-12T10:55:55;2.03;;;1.50;;
19291;SDS011;9779;51.756;7.450;2023-08-12T11:01:13;1.60;;;1.37;;
19291;SDS011;9779;51.756;7.450;2023-08-12T11:03:43;3.03;;;1.47;;
19291;SDS011;9779;51.756;7.450;2023-08-12T11:06:12;1.50;;;1.40;;
19291;SDS011;9779;51.756;7.450;2023-08-12T11:08:53;1.27;;;1.20;;
19291;SDS011;9779;51.756;7.450;2023-08-12T11:11:24;1.53;;;1.10;;
19291;SDS011;9779;51.756;7.450;2023-08-12T11:13:53;1.20;;;1.10;;
19291;SDS011;9779;51.756;7.450;2023-08-12T11:16:21;3.13;;;1.20;;
19291;SDS011;9779;51.756;7.450;2023-08-12T11:19:00;0.88;;;0.75;;
19291;SDS011;9779;51.756;7.450;2023-08-12T11:21:26;0.77;;;0.77;;
19291;SDS011;9779;51.756;7.450;2023-08-12T11:23:54;3.47;;;1.30;;
19291;SDS011;9779;51.756;7.450;2023-08-12T11:26:20;1.88;;;1.15;;
19291;SDS011;9779;51.756;7.450;2023-08-12T11:28:48;2.07;;;1.00;;
19291;SDS011;9779;51.756;7.450;2023-08-12T11:31:14;1.30;;;1.17;;
19291;SDS011;9779;51.756;7.450;2023-08-12T11:33:40;1.45;;;1.35;;
19291;SDS011;9779;51.756;7.450;2023-08-12T11:36:07;1.23;;;1.15;;
19291;SDS011;9779;51.756;7.450;2023-08-12T11:38:32;2.60;;;1.23;;
19291;SDS011;9779;51.756;7.450;2023-08-12T11:41:00;1.55;;;1.45;;
19291;SDS011;9779;51.756;7.450;2023-08-12T11:43:27;2.20;;;2.10;;
19291;SDS011;9779;51.756;7.450;2023-08-12T11:45:55;2.95;;;2.70;;
19291;SDS011;9779;51.756;7.450;2023-08-12T11:48:21;2.60;;;2.45;;
19291;SDS011;9779;51.756;7.450;2023-08-12T11:50:48;2.50;;;2.40;;
19291;SDS011;9779;51.756;7.450;2023-08-12T11:53:13;3.63;;;3.33;;
19291;SDS011;9779;51.756;7.450;2023-08-12T11:55:39;4.35;;;3.58;;
19291;SDS011;9779;51.756;7.450;2023-08-12T11:58:05;3.35;;;3.15;;
19291;SDS011;9779;51.756;7.450;2023-08-12T12:00:30;3.45;;;3.25;;
19291;SDS011;9779;51.756;7.450;2023-08-12T12:02:58;4.28;;;3.50;;
19291;SDS011;9779;51.756;7.450;2023-08-12T12:05:26;3.60;;;3.33;;
19291;SDS011;9779;51.756;7.450;2023-08-12T12:07:54;3.85;;;3.65;;
19291;SDS011;9779;51.756;7.450;2023-08-12T12:10:29;3.13;;;2.92;;
19291;SDS011;9779;51.756;7.450;2023-08-12T12:12:57;2.97;;;2.63;;
19291;SDS011;9779;51.756;7.450;2023-08-12T12:15:23;3.13;;;2.92;;
19291;SDS011;9779;51.756;7.450;2023-08-12T12:17:49;2.00;;;1.88;;
19291;SDS011;9779;51.756;7.450;2023-08-12T12:20:16;3.70;;;1.45;;
19291;SDS011;9779;51.756;7.450;2023-08-12T12:22:42;7.40;;;1.80;;
19291;SDS011;9779;51.756;7.450;2023-08-12T12:25:10;2.28;;;2.08;;
19291;SDS011;9779;51.756;7.450;2023-08-12T12:27:40;1.90;;;1.80;;
19291;SDS011;9779;51.756;7.450;2023-08-12T12:30:11;2.00;;;1.90;;
19291;SDS011;9779;51.756;7.450;2023-08-12T12:32:37;1.90;;;1.80;;
19291;SDS011;9779;51.756;7.450;2023-08-12T12:35:03;1.83;;;1.73;;
19291;SDS011;9779;51.756;7.450;2023-08-12T12:37:32;1.58;;;1.48;;
19291;SDS011;9779;51.756;7.450;2023-08-12T12:39:58;1.67;;;1.30;;
19291;SDS011;9779;51.756;7.450;2023-08-12T12:42:23;1.70;;;1.48;;
19291;SDS011;9779;51.756;7.450;2023-08-12T12:44:49;1.30;;;1.30;;
19291;SDS011;9779;51.756;7.450;2023-08-12T12:47:15;1.38;;;1.27;;
19291;SDS011;9779;51.756;7.450;2023-08-12T12:49:41;1.08;;;1.08;;
19291;SDS011;9779;51.756;7.450;2023-08-12T12:52:07;3.03;;;1.08;;
19291;SDS011;9779;51.756;7.450;2023-08-12T12:54:32;1.30;;;1.20;;
19291;SDS011;9779;51.756;7.450;2023-08-12T12:56:58;1.23;;;1.20;;
19291;SDS011;9779;51.756;7.450;2023-08-12T12:59:24;1.08;;;1.08;;
19291;SDS011;9779;51.756;7.450;2023-08-12T13:01:50;1.17;;;1.08;;
19291;SDS011;9779;51.756;7.450;2023-08-12T13:04:15;5.78;;;1.35;;
19291;SDS011;9779;51.756;7.450;2023-08-12T13:06:41;0.93;;;0.93;;
19291;SDS011;9779;51.756;7.450;2023-08-12T13:09:07;1.35;;;1.25;;
19291;SDS011;9779;51.756;7.450;2023-08-12T13:11:33;4.07;;;1.38;;
19291;SDS011;9779;51.756;7.450;2023-08-12T13:14:04;0.93;;;0.73;;
19291;SDS011;9779;51.756;7.450;2023-08-12T13:16:30;1.27;;;0.80;;
19291;SDS011;9779;51.756;7.450;2023-08-12T13:18:56;0.95;;;0.90;;
19291;SDS011;9779;51.756;7.450;2023-08-12T13:21:23;1.30;;;0.80;;
19291;SDS011;9779;51.756;7.450;2023-08-12T13:23:50;4.38;;;1.10;;
19291;SDS011;9779;51.756;7.450;2023-08-12T13:26:18;0.90;;;0.90;;
19291;SDS011;9779;51.756;7.450;2023-08-12T13:28:44;1.08;;;1.00;;
19291;SDS011;9779;51.756;7.450;2023-08-12T13:31:10;1.23;;;0.95;;
19291;SDS011;9779;51.756;7.450;2023-08-12T13:33:36;2.13;;;0.70;;
19291;SDS011;9779;51.756;7.450;2023-08-12T13:36:02;1.70;;;1.20;;
19291;SDS011;9779;51.756;7.450;2023-08-12T13:38:27;2.40;;;1.17;;
19291;SDS011;9779;51.756;7.450;2023-08-12T13:40:53;1.67;;;1.23;;
19291;SDS011;9779;51.756;7.450;2023-08-12T13:43:18;1.10;;;1.08;;
19291;SDS011;9779;51.756;7.450;2023-08-12T13:45:44;1.45;;;1.20;;
19291;SDS011;9779;51.756;7.450;2023-08-12T13:48:10;1.70;;;1.17;;
19291;SDS011;9779;51.756;7.450;2023-08-12T13:50:35;8.00;;;1.90;;
19291;SDS011;9779;51.756;7.450;2023-08-12T13:53:01;11.23;;;2.67;;
19291;SDS011;9779;51.756;7.450;2023-08-12T13:55:27;2.00;;;1.80;;
19291;SDS011;9779;51.756;7.450;2023-08-12T13:57:53;2.05;;;1.50;;
19291;SDS011;9779;51.756;7.450;2023-08-12T14:00:19;2.25;;;2.03;;
19291;SDS011;9779;51.756;7.450;2023-08-12T14:02:49;4.55;;;1.55;;
19291;SDS011;9779;51.756;7.450;2023-08-12T14:05:15;2.13;;;2.03;;
19291;SDS011;9779;51.756;7.450;2023-08-12T14:07:40;1.85;;;1.75;;
19291;SDS011;9779;51.756;7.450;2023-08-12T14:10:07;2.20;;;1.88;;
19291;SDS011;9779;51.756;7.450;2023-08-12T14:12:33;1.75;;;1.65;;
19291;SDS011;9779;51.756;7.450;2023-08-12T14:14:59;6.55;;;2.17;;
19291;SDS011;9779;51.756;7.450;2023-08-12T14:17:24;6.15;;;2.90;;
19291;SDS011;9779;51.756;7.450;2023-08-12T14:19:51;10.38;;;3.22;;
19291;SDS011;9779;51.756;7.450;2023-08-12T14:22:18;46.55;;;4.93;;
19291;SDS011;9779;51.756;7.450;2023-08-12T14:24:44;71.72;;;6.68;;
19291;SDS011;9779;51.756;7.450;2023-08-12T14:27:10;48.58;;;4.85;;
19291;SDS011;9779;51.756;7.450;2023-08-12T14:29:36;82.13;;;6.05;;
19291;SDS011;9779;51.756;7.450;2023-08-12T14:32:01;31.73;;;4.07;;
19291;SDS011;9779;51.756;7.450;2023-08-12T14:34:28;5.70;;;3.20;;
19291;SDS011;9779;51.756;7.450;2023-08-12T14:36:54;6.77;;;2.93;;
19291;SDS011;9779;51.756;7.450;2023-08-12T14:39:20;3.17;;;2.03;;
19291;SDS011;9779;51.756;7.450;2023-08-12T14:41:47;1.15;;;1.05;;
19291;SDS011;9779;51.756;7.450;2023-08-12T14:44:13;1.20;;;1.10;;
19291;SDS011;9779;51.756;7.450;2023-08-12T14:46:39;1.30;;;1.20;;
19291;SDS011;9779;51.756;7.450;2023-08-12T14:49:04;1.53;;;1.10;;
19291;SDS011;9779;51.756;7.450;2023-08-12T14:51:30;0.70;;;0.70;;
19291;SDS011;9779;51.756;7.450;2023-08-12T14:53:56;1.63;;;1.23;;
19291;SDS011;9779;51.756;7.450;2023-08-12T14:56:21;2.20;;;1.38;;
19291;SDS011;9779;51.756;7.450;2023-08-12T14:58:47;1.55;;;1.45;;